Time;durP1;ratioP1;P1;durP2;ratioP2;P2;SDS_P1;SDS_P2;PMS_P1;PMS_P2;Temp;Humidity;BMP_temperature;BMP_pressure;BME280_temperature;BME280_humidity;BME280_pressure;Samples;Min_cycle;Max_cycle;Signal;HPM_P1;HPM_P2
2023/02/11 00:01:36;;;;;;;4.43;2.55;;;;;;;;;;5033517;28;20068;-77
2023/02/11 00:04:02;;;;;;;7.47;2.25;;;;;;;;;;5038230;28;20043;-77
2023/02/11 00:06:29;;;;;;;4.75;2.47;;;;;;;;;;5046077;28;20642;-77
2023/02/11 00:08:56;;;;;;;3.58;2.22;;;;;;;;;;5030288;28;20026;-77
2023/02/11 00:11:24;;;;;;;4.63;2.88;;;;;;;;;;5030439;28;20477;-77
2023/02/11 00:13:50;;;;;;;6.97;2.83;;;;;;;;;;5036754;28;20033;-77
2023/02/11 00:16:20;;;;;;;3.70;2.38;;;;;;;;;;5048021;28;20489;-77
2023/02/11 00:18:51;;;;;;;3.75;2.33;;;;;;;;;;5050246;28;20330;-77
2023/02/11 00:24:08;;;;;;;3.72;2.20;;;;;;;;;;5032713;28;20366;-78
2023/02/11 00:26:35;;;;;;;3.13;2.05;;;;;;;;;;5030882;28;20159;-77
2023/02/11 00:29:01;;;;;;;4.72;2.38;;;;;;;;;;5030550;28;20121;-77
2023/02/11 00:31:28;;;;;;;4.20;2.60;;;;;;;;;;5048902;28;20025;-77
2023/02/11 00:33:54;;;;;;;3.45;2.10;;;;;;;;;;5040100;28;20060;-77
2023/02/11 00:36:22;;;;;;;5.80;2.63;;;;;;;;;;5043823;28;20140;-76
2023/02/11 00:38:49;;;;;;;4.13;2.28;;;;;;;;;;5049614;28;20040;-77
2023/02/11 00:41:15;;;;;;;4.40;2.03;;;;;;;;;;5051708;28;20029;-77
2023/02/11 00:43:41;;;;;;;6.03;2.72;;;;;;;;;;5028666;28;20073;-76
2023/02/11 00:46:07;;;;;;;5.35;2.30;;;;;;;;;;5029569;28;20040;-77
2023/02/11 00:48:33;;;;;;;4.15;2.38;;;;;;;;;;5029408;28;20112;-77
2023/02/11 00:50:59;;;;;;;6.80;3.00;;;;;;;;;;5029520;28;20032;-77
2023/02/11 00:53:25;;;;;;;4.25;2.17;;;;;;;;;;5029928;28;20032;-77
2023/02/11 00:55:51;;;;;;;5.45;2.53;;;;;;;;;;5029676;28;20533;-77
2023/02/11 00:58:17;;;;;;;3.97;1.95;;;;;;;;;;5031873;28;20033;-77
2023/02/11 01:00:43;;;;;;;6.70;2.70;;;;;;;;;;5049311;28;20029;-77
2023/02/11 01:03:09;;;;;;;5.60;2.70;;;;;;;;;;5030285;28;20242;-78
2023/02/11 01:05:35;;;;;;;3.72;2.15;;;;;;;;;;5029002;28;20117;-77
2023/02/11 01:08:01;;;;;;;7.15;3.08;;;;;;;;;;5028946;28;20037;-77
2023/02/11 01:10:27;;;;;;;7.50;2.55;;;;;;;;;;5029315;28;20021;-76
2023/02/11 01:12:53;;;;;;;4.43;2.55;;;;;;;;;;5038988;28;20028;-77
2023/02/11 01:15:20;;;;;;;4.57;2.78;;;;;;;;;;5047930;28;20056;-77
2023/02/11 01:17:46;;;;;;;4.43;2.83;;;;;;;;;;5029247;28;20033;-77
2023/02/11 01:20:16;;;;;;;4.18;2.75;;;;;;;;;;5038093;28;20037;-77
2023/02/11 01:22:42;;;;;;;5.47;2.05;;;;;;;;;;5030981;28;20493;-77
2023/02/11 01:25:08;;;;;;;4.90;2.63;;;;;;;;;;5028780;28;20106;-77
2023/02/11 01:27:35;;;;;;;3.28;2.22;;;;;;;;;;5032971;28;20402;-76
2023/02/11 01:30:01;;;;;;;4.15;2.15;;;;;;;;;;5037780;28;20036;-77
2023/02/11 01:32:27;;;;;;;4.47;2.67;;;;;;;;;;5029648;28;20037;-77
2023/02/11 01:34:53;;;;;;;4.80;2.60;;;;;;;;;;5033931;28;20029;-77
2023/02/11 01:37:19;;;;;;;4.55;2.03;;;;;;;;;;5047898;28;20067;-77
2023/02/11 01:39:45;;;;;;;4.70;2.30;;;;;;;;;;5043732;28;20026;-77
2023/02/11 01:42:15;;;;;;;4.68;2.53;;;;;;;;;;5034025;28;20049;-77
2023/02/11 01:44:41;;;;;;;3.92;2.13;;;;;;;;;;5028504;28;20083;-77
2023/02/11 01:47:08;;;;;;;6.03;2.55;;;;;;;;;;5028541;28;20045;-77
2023/02/11 01:49:36;;;;;;;8.85;2.75;;;;;;;;;;5031177;28;20026;-77
2023/02/11 01:52:07;;;;;;;4.22;2.25;;;;;;;;;;5043840;28;20544;-77
2023/02/11 01:57:21;;;;;;;2.78;1.60;;;;;;;;;;5028520;28;19919;-77
2023/02/11 01:59:59;;;;;;;4.00;2.15;;;;;;;;;;5039564;28;20033;-77
2023/02/11 02:02:29;;;;;;;4.10;2.40;;;;;;;;;;5029931;28;20127;-77
2023/02/11 02:05:00;;;;;;;8.18;2.97;;;;;;;;;;5038473;28;20126;-76
2023/02/11 02:07:38;;;;;;;4.03;2.55;;;;;;;;;;5038019;28;20568;-77
2023/02/11 02:10:07;;;;;;;5.47;2.58;;;;;;;;;;5039342;28;20124;-77
2023/02/11 02:12:33;;;;;;;5.28;2.42;;;;;;;;;;5041839;28;20029;-77
2023/02/11 02:15:17;;;;;;;5.47;2.28;;;;;;;;;;5027766;28;20033;-77
2023/02/11 02:17:45;;;;;;;2.75;1.73;;;;;;;;;;5042815;28;20040;-77
2023/02/11 02:20:26;;;;;;;4.38;2.25;;;;;;;;;;5027923;28;20087;-77
2023/02/11 02:23:09;;;;;;;7.03;2.13;;;;;;;;;;5028359;28;20037;-77
2023/02/11 02:25:47;;;;;;;6.10;2.53;;;;;;;;;;5031216;28;20034;-77
2023/02/11 02:28:19;;;;;;;4.18;2.17;;;;;;;;;;5038053;28;20486;-77
2023/02/11 02:31:02;;;;;;;6.15;2.65;;;;;;;;;;5043138;28;20234;-77
2023/02/11 02:33:47;;;;;;;4.47;2.30;;;;;;;;;;5028581;28;20037;-77
2023/02/11 02:36:13;;;;;;;4.70;2.50;;;;;;;;;;5037411;28;20040;-77
2023/02/11 02:38:42;;;;;;;4.50;2.78;;;;;;;;;;5050276;28;20033;-77
2023/02/11 02:41:09;;;;;;;4.57;2.70;;;;;;;;;;5038427;28;20503;-77
2023/02/11 02:43:37;;;;;;;3.55;2.33;;;;;;;;;;5046742;28;20108;-77
2023/02/11 02:46:13;;;;;;;4.78;2.20;;;;;;;;;;5037625;28;20262;-77
2023/02/11 02:48:39;;;;;;;3.70;2.25;;;;;;;;;;5035991;28;20060;-77
2023/02/11 02:51:05;;;;;;;6.03;2.47;;;;;;;;;;5031131;28;20046;-77
2023/02/11 02:53:49;;;;;;;4.82;2.10;;;;;;;;;;5031582;28;20034;-77
2023/02/11 02:56:24;;;;;;;5.10;2.47;;;;;;;;;;5037608;28;20041;-76
2023/02/11 02:59:09;;;;;;;4.22;2.30;;;;;;;;;;5046863;28;20041;-77
2023/02/11 03:01:56;;;;;;;3.72;1.73;;;;;;;;;;5045138;28;20030;-77
2023/02/11 03:04:40;;;;;;;4.95;2.20;;;;;;;;;;5038605;28;20116;-77
2023/02/11 03:07:27;;;;;;;5.07;2.30;;;;;;;;;;5040873;28;20538;-77
2023/02/11 03:09:59;;;;;;;5.55;2.35;;;;;;;;;;5048985;28;20227;-77
2023/02/11 03:12:27;;;;;;;3.88;2.30;;;;;;;;;;5042254;28;20021;-77
2023/02/11 03:14:53;;;;;;;4.65;2.50;;;;;;;;;;5032120;28;20033;-77
2023/02/11 03:17:20;;;;;;;5.32;2.83;;;;;;;;;;5040843;28;20108;-77
2023/02/11 03:19:47;;;;;;;3.42;1.90;;;;;;;;;;5036726;28;20051;-77
2023/02/11 03:22:24;;;;;;;3.25;1.85;;;;;;;;;;5050387;28;20035;-77
2023/02/11 03:24:50;;;;;;;5.93;2.50;;;;;;;;;;5038901;28;20037;-77
2023/02/11 03:27:26;;;;;;;5.80;2.10;;;;;;;;;;5039982;28;20029;-77
2023/02/11 03:30:05;;;;;;;4.32;1.98;;;;;;;;;;5036361;28;20037;-76
2023/02/11 03:32:39;;;;;;;5.90;2.38;;;;;;;;;;5047948;28;20410;-77
2023/02/11 03:35:11;;;;;;;4.22;2.03;;;;;;;;;;5045285;28;20032;-77
2023/02/11 03:37:45;;;;;;;3.97;2.60;;;;;;;;;;5035977;28;20020;-77
2023/02/11 03:40:13;;;;;;;4.85;2.45;;;;;;;;;;5035825;28;20021;-77
2023/02/11 03:43:05;;;;;;;3.92;2.65;;;;;;;;;;5040741;28;20057;-77
2023/02/11 03:45:31;;;;;;;6.03;2.47;;;;;;;;;;5017147;28;20079;-77
2023/02/11 03:48:02;;;;;;;3.92;1.90;;;;;;;;;;5048332;28;20074;-77
2023/02/11 03:50:29;;;;;;;6.18;3.05;;;;;;;;;;5049227;28;20036;-77
2023/02/11 03:52:56;;;;;;;3.75;2.25;;;;;;;;;;5030463;28;20037;-77
2023/02/11 03:55:24;;;;;;;5.70;2.38;;;;;;;;;;5040970;28;20580;-77
2023/02/11 03:57:51;;;;;;;3.80;1.90;;;;;;;;;;5030963;28;20041;-77
2023/02/11 04:00:17;;;;;;;5.55;2.60;;;;;;;;;;5041999;28;20039;-77
2023/02/11 04:02:43;;;;;;;2.85;2.20;;;;;;;;;;5048688;28;20025;-77
2023/02/11 04:05:09;;;;;;;4.25;2.08;;;;;;;;;;5033205;28;20401;-77
2023/02/11 04:07:35;;;;;;;4.47;2.10;;;;;;;;;;5035744;28;20022;-77
2023/02/11 04:10:01;;;;;;;3.88;2.50;;;;;;;;;;5035146;28;20519;-77
2023/02/11 04:12:27;;;;;;;3.22;1.92;;;;;;;;;;5033903;28;20155;-77
2023/02/11 04:14:53;;;;;;;4.40;2.67;;;;;;;;;;5034995;28;20030;-77
2023/02/11 04:17:19;;;;;;;4.40;2.20;;;;;;;;;;5033311;28;20018;-77
2023/02/11 04:19:45;;;;;;;3.30;1.90;;;;;;;;;;5030104;28;20025;-77
2023/02/11 04:22:11;;;;;;;3.55;2.15;;;;;;;;;;5030426;28;20465;-77
2023/02/11 04:24:37;;;;;;;3.88;2.03;;;;;;;;;;5044525;28;20026;-77
2023/02/11 04:27:03;;;;;;;3.22;2.30;;;;;;;;;;5030346;28;20030;-78
2023/02/11 04:29:29;;;;;;;3.67;2.08;;;;;;;;;;5034268;28;20029;-76
2023/02/11 04:31:55;;;;;;;4.93;2.67;;;;;;;;;;5029153;28;20422;-77
2023/02/11 04:34:22;;;;;;;3.58;2.20;;;;;;;;;;5036466;28;20013;-79
2023/02/11 04:36:48;;;;;;;4.88;1.95;;;;;;;;;;5044817;28;20028;-76
2023/02/11 04:39:14;;;;;;;5.05;2.05;;;;;;;;;;5040885;28;20025;-79
2023/02/11 04:41:39;;;;;;;7.30;2.42;;;;;;;;;;5045080;28;20037;-77
2023/02/11 04:44:06;;;;;;;3.58;2.28;;;;;;;;;;5030238;28;20030;-77
2023/02/11 04:46:31;;;;;;;5.00;2.28;;;;;;;;;;5032073;28;20470;-76
2023/02/11 04:48:57;;;;;;;5.53;2.50;;;;;;;;;;5037316;28;20025;-77
2023/02/11 04:51:26;;;;;;;4.22;2.55;;;;;;;;;;5039065;28;20029;-77
2023/02/11 04:53:52;;;;;;;4.15;2.40;;;;;;;;;;5032930;28;20026;-77
2023/02/11 04:56:18;;;;;;;4.72;2.15;;;;;;;;;;5041073;28;20025;-77
2023/02/11 04:58:44;;;;;;;3.58;2.42;;;;;;;;;;5041017;28;20036;-76
2023/02/11 05:01:12;;;;;;;3.70;2.40;;;;;;;;;;5039611;28;20044;-77
2023/02/11 05:03:38;;;;;;;4.78;2.28;;;;;;;;;;5031101;28;20033;-76
2023/02/11 05:06:04;;;;;;;4.15;2.42;;;;;;;;;;5032725;28;20084;-76
2023/02/11 05:08:30;;;;;;;5.72;2.90;;;;;;;;;;5028515;28;20124;-77
2023/02/11 05:10:56;;;;;;;4.38;2.45;;;;;;;;;;5036930;28;20021;-77
2023/02/11 05:13:22;;;;;;;5.18;2.70;;;;;;;;;;5028146;28;20044;-76
2023/02/11 05:15:48;;;;;;;3.92;2.47;;;;;;;;;;5029816;28;20478;-76
2023/02/11 05:18:14;;;;;;;5.57;2.70;;;;;;;;;;5042983;28;20389;-77
2023/02/11 05:20:41;;;;;;;3.10;2.20;;;;;;;;;;5044160;28;20024;-77
2023/02/11 05:23:07;;;;;;;3.65;2.38;;;;;;;;;;5042718;28;20033;-77
2023/02/11 05:25:33;;;;;;;5.20;2.63;;;;;;;;;;5035373;28;20048;-76
2023/02/11 05:27:59;;;;;;;7.43;3.00;;;;;;;;;;5030477;28;20044;-77
2023/02/11 05:30:25;;;;;;;5.00;2.78;;;;;;;;;;5047480;28;20463;-76
2023/02/11 05:32:51;;;;;;;4.35;2.55;;;;;;;;;;5035630;28;20139;-76
2023/02/11 05:35:17;;;;;;;4.72;2.65;;;;;;;;;;5029887;28;20136;-76
2023/02/11 05:37:43;;;;;;;4.63;2.40;;;;;;;;;;5029564;28;20029;-76
2023/02/11 05:40:09;;;;;;;5.88;3.00;;;;;;;;;;5028562;28;20029;-77
2023/02/11 05:42:35;;;;;;;5.05;2.65;;;;;;;;;;5046018;28;20136;-76
2023/02/11 05:45:01;;;;;;;5.07;2.45;;;;;;;;;;5034784;28;20029;-77
2023/02/11 05:47:27;;;;;;;4.80;2.38;;;;;;;;;;5027497;28;20374;-77
2023/02/11 05:49:53;;;;;;;4.80;3.15;;;;;;;;;;5027103;28;20117;-78
2023/02/11 05:52:20;;;;;;;4.97;2.58;;;;;;;;;;5035491;28;20474;-78
2023/02/11 05:54:49;;;;;;;4.03;2.50;;;;;;;;;;5037875;28;20033;-77
2023/02/11 05:57:15;;;;;;;5.85;2.70;;;;;;;;;;5039086;28;20041;-78
2023/02/11 05:59:41;;;;;;;4.85;2.33;;;;;;;;;;5035240;28;20029;-77
2023/02/11 06:02:08;;;;;;;4.20;2.58;;;;;;;;;;5036619;28;20028;-77
2023/02/11 06:04:34;;;;;;;8.07;3.35;;;;;;;;;;5036467;28;20025;-77
2023/02/11 06:07:00;;;;;;;4.30;2.50;;;;;;;;;;5033826;28;20154;-77
2023/02/11 06:09:26;;;;;;;4.30;2.53;;;;;;;;;;5029973;28;20588;-77
2023/02/11 06:11:52;;;;;;;3.95;2.58;;;;;;;;;;5032993;28;20021;-77
2023/02/11 06:14:18;;;;;;;5.68;2.70;;;;;;;;;;5041264;28;20033;-78
2023/02/11 06:16:44;;;;;;;4.28;2.47;;;;;;;;;;5033385;28;20056;-76
2023/02/11 06:19:11;;;;;;;3.67;2.47;;;;;;;;;;5035792;28;20033;-72
2023/02/11 06:21:37;;;;;;;6.30;2.95;;;;;;;;;;5031996;28;20037;-73
2023/02/11 06:24:03;;;;;;;3.70;2.65;;;;;;;;;;5038713;28;20084;-72
2023/02/11 06:26:30;;;;;;;4.05;2.15;;;;;;;;;;5032959;28;20036;-71
2023/02/11 06:28:56;;;;;;;5.00;2.50;;;;;;;;;;5033995;28;20641;-72
2023/02/11 06:31:21;;;;;;;4.90;2.90;;;;;;;;;;5032325;28;20017;-76
2023/02/11 06:33:49;;;;;;;3.92;2.45;;;;;;;;;;5040325;28;20029;-76
2023/02/11 06:36:16;;;;;;;5.47;2.75;;;;;;;;;;5030831;28;20034;-76
2023/02/11 06:38:42;;;;;;;6.45;2.92;;;;;;;;;;5031616;28;20063;-76
2023/02/11 06:41:11;;;;;;;4.65;2.97;;;;;;;;;;5036148;28;20029;-76
2023/02/11 06:43:37;;;;;;;4.22;2.90;;;;;;;;;;5042772;28;20449;-78
2023/02/11 06:46:04;;;;;;;6.07;3.22;;;;;;;;;;5038198;28;20055;-77
2023/02/11 06:48:29;;;;;;;6.28;3.17;;;;;;;;;;5029391;28;20041;-77
2023/02/11 06:50:55;;;;;;;4.97;2.97;;;;;;;;;;5044277;28;20481;-77
2023/02/11 06:53:21;;;;;;;4.90;2.70;;;;;;;;;;5030718;28;20744;-78
2023/02/11 06:55:47;;;;;;;7.05;3.00;;;;;;;;;;5029321;28;20017;-76
2023/02/11 06:58:13;;;;;;;7.97;3.20;;;;;;;;;;5031118;28;20060;-77
2023/02/11 07:00:40;;;;;;;5.40;2.83;;;;;;;;;;5029141;28;20037;-77
2023/02/11 07:03:06;;;;;;;7.93;2.92;;;;;;;;;;5035682;28;20028;-83
2023/02/11 07:05:33;;;;;;;6.07;3.45;;;;;;;;;;5038896;28;20024;-76
2023/02/11 07:07:59;;;;;;;6.55;3.20;;;;;;;;;;5026296;28;20031;-84
2023/02/11 07:10:25;;;;;;;5.65;2.75;;;;;;;;;;5026289;28;20028;-83
2023/02/11 07:12:51;;;;;;;7.07;3.28;;;;;;;;;;5031876;28;20025;-82
2023/02/11 07:15:17;;;;;;;5.68;2.80;;;;;;;;;;5028403;28;20032;-82
2023/02/11 07:17:43;;;;;;;4.50;2.92;;;;;;;;;;5047817;28;20031;-82
2023/02/11 07:20:11;;;;;;;5.35;3.13;;;;;;;;;;5050859;28;20572;-81
2023/02/11 07:22:37;;;;;;;5.97;3.22;;;;;;;;;;5050739;28;20032;-83
2023/02/11 07:25:03;;;;;;;7.38;3.47;;;;;;;;;;5054679;28;20082;-84
2023/02/11 07:27:29;;;;;;;6.38;2.88;;;;;;;;;;5049838;28;20060;-84
2023/02/11 07:29:55;;;;;;;6.05;3.13;;;;;;;;;;5054768;28;20057;-83
2023/02/11 07:32:21;;;;;;;9.00;3.67;;;;;;;;;;5045799;28;20067;-83
2023/02/11 07:34:47;;;;;;;6.63;3.47;;;;;;;;;;5056932;28;20028;-81
2023/02/11 07:37:13;;;;;;;8.65;3.55;;;;;;;;;;5050028;28;20750;-82
2023/02/11 07:39:39;;;;;;;7.93;3.42;;;;;;;;;;5050704;28;20609;-83
2023/02/11 07:42:05;;;;;;;6.32;3.15;;;;;;;;;;5050188;28;20114;-83
2023/02/11 07:44:32;;;;;;;5.75;3.03;;;;;;;;;;5044696;28;20051;-77
2023/02/11 07:46:58;;;;;;;7.20;3.00;;;;;;;;;;5048788;28;20025;-82
2023/02/11 07:49:27;;;;;;;7.78;3.85;;;;;;;;;;5047432;28;20079;-82
2023/02/11 07:51:53;;;;;;;4.22;2.78;;;;;;;;;;5047033;28;20077;-85
2023/02/11 07:54:19;;;;;;;6.25;3.17;;;;;;;;;;5053835;28;20040;-83
2023/02/11 07:56:44;;;;;;;11.48;3.45;;;;;;;;;;5040080;28;20555;-82
2023/02/11 07:59:11;;;;;;;7.32;3.50;;;;;;;;;;5037413;28;20021;-82
2023/02/11 08:01:37;;;;;;;11.90;3.60;;;;;;;;;;5038445;28;20029;-82
2023/02/11 08:04:03;;;;;;;6.60;3.50;;;;;;;;;;5036249;28;20029;-82
2023/02/11 08:06:34;;;;;;;8.02;4.07;;;;;;;;;;5038935;28;20037;-80
2023/02/11 08:09:04;;;;;;;5.68;3.28;;;;;;;;;;5031302;28;20037;-82
2023/02/11 08:11:30;;;;;;;5.57;3.00;;;;;;;;;;5030821;28;20686;-79
2023/02/11 08:13:56;;;;;;;5.93;3.15;;;;;;;;;;5035987;28;20052;-81
2023/02/11 08:16:24;;;;;;;6.03;2.78;;;;;;;;;;5041034;28;20021;-81
2023/02/11 08:18:50;;;;;;;5.00;2.95;;;;;;;;;;5036086;28;20039;-80
2023/02/11 08:21:16;;;;;;;8.88;3.90;;;;;;;;;;5042693;28;24912;-85
2023/02/11 08:23:43;;;;;;;6.80;3.10;;;;;;;;;;5044358;28;20115;-84
2023/02/11 08:26:10;;;;;;;6.15;3.20;;;;;;;;;;5037541;28;20135;-86
2023/02/11 08:28:38;;;;;;;5.68;3.33;;;;;;;;;;5040269;28;20029;-84
2023/02/11 08:31:04;;;;;;;6.75;2.83;;;;;;;;;;5045411;28;20021;-83
2023/02/11 08:33:30;;;;;;;6.95;3.40;;;;;;;;;;5037223;28;20036;-85
2023/02/11 08:35:56;;;;;;;5.75;2.92;;;;;;;;;;5043900;28;20025;-82
2023/02/11 08:38:22;;;;;;;7.38;3.28;;;;;;;;;;5036441;28;20013;-85
2023/02/11 08:40:48;;;;;;;4.07;2.70;;;;;;;;;;5042191;28;20516;-80
2023/02/11 08:43:23;;;;;;;9.65;2.95;;;;;;;;;;5032148;28;20553;-83
2023/02/11 08:45:49;;;;;;;4.78;3.13;;;;;;;;;;5038468;28;20114;-86
2023/02/11 08:48:14;;;;;;;5.63;2.90;;;;;;;;;;5033858;28;20448;-86
2023/02/11 08:50:40;;;;;;;8.82;3.45;;;;;;;;;;5029117;28;20028;-83
2023/02/11 08:53:06;;;;;;;4.85;2.72;;;;;;;;;;5037977;28;20037;-81
2023/02/11 08:55:32;;;;;;;5.78;3.28;;;;;;;;;;5033729;28;20079;-82
2023/02/11 08:57:58;;;;;;;5.97;2.88;;;;;;;;;;5037849;28;20033;-83
2023/02/11 09:00:24;;;;;;;7.45;3.20;;;;;;;;;;5039196;28;20037;-86
2023/02/11 09:02:51;;;;;;;6.18;3.47;;;;;;;;;;5031979;28;20039;-86
2023/02/11 09:05:17;;;;;;;4.43;2.85;;;;;;;;;;5036039;28;20095;-83
2023/02/11 09:07:43;;;;;;;9.10;2.95;;;;;;;;;;5041364;28;20406;-83
2023/02/11 09:10:09;;;;;;;7.40;3.00;;;;;;;;;;5037780;28;20044;-84
2023/02/11 09:12:35;;;;;;;6.43;3.28;;;;;;;;;;5040916;28;20057;-79
2023/02/11 09:15:01;;;;;;;9.88;3.78;;;;;;;;;;5036297;28;20013;-77
2023/02/11 09:17:27;;;;;;;4.40;2.75;;;;;;;;;;5037237;28;20036;-74
2023/02/11 09:19:53;;;;;;;4.85;2.95;;;;;;;;;;5036292;28;20067;-83
2023/02/11 09:22:19;;;;;;;7.28;3.08;;;;;;;;;;5031397;28;20394;-85
2023/02/11 09:24:45;;;;;;;6.47;3.47;;;;;;;;;;5033806;28;20040;-77
2023/02/11 09:27:11;;;;;;;7.68;3.05;;;;;;;;;;5025549;28;20029;-78
2023/02/11 09:29:37;;;;;;;7.90;3.17;;;;;;;;;;5037690;28;20121;-79
2023/02/11 09:32:03;;;;;;;7.65;3.42;;;;;;;;;;5027940;28;20028;-83
2023/02/11 09:34:29;;;;;;;7.32;3.50;;;;;;;;;;5030358;28;20121;-77
2023/02/11 09:36:54;;;;;;;7.55;3.88;;;;;;;;;;5040712;28;20025;-77
2023/02/11 09:39:20;;;;;;;9.25;3.33;;;;;;;;;;5044806;28;20048;-77
2023/02/11 09:41:46;;;;;;;5.68;3.38;;;;;;;;;;5043555;28;20041;-77
2023/02/11 09:44:23;;;;;;;7.28;3.30;;;;;;;;;;5030581;28;20026;-78
2023/02/11 09:46:53;;;;;;;8.23;3.35;;;;;;;;;;5036723;28;20036;-77
2023/02/11 09:49:22;;;;;;;8.27;3.03;;;;;;;;;;5029441;28;20041;-78
2023/02/11 09:51:51;;;;;;;6.15;3.40;;;;;;;;;;5038364;28;20029;-79
2023/02/11 09:54:38;;;;;;;5.97;3.10;;;;;;;;;;5029923;28;20031;-78
2023/02/11 09:57:05;;;;;;;8.88;3.70;;;;;;;;;;5032171;28;20028;-78
2023/02/11 09:59:31;;;;;;;6.05;3.55;;;;;;;;;;5042883;28;20047;-78
2023/02/11 10:02:02;;;;;;;6.15;3.67;;;;;;;;;;5039911;28;20029;-76
2023/02/11 10:04:45;;;;;;;7.95;3.28;;;;;;;;;;5027858;28;20036;-76
2023/02/11 10:07:14;;;;;;;7.03;3.65;;;;;;;;;;5028702;28;20044;-76
2023/02/11 10:09:52;;;;;;;7.43;3.83;;;;;;;;;;5028006;28;20037;-76
2023/02/11 10:12:26;;;;;;;12.40;3.38;;;;;;;;;;5043705;28;20029;-77
2023/02/11 10:14:58;;;;;;;6.78;3.42;;;;;;;;;;5038028;28;20140;-77
2023/02/11 10:17:45;;;;;;;6.70;3.50;;;;;;;;;;5027431;28;20030;-76
2023/02/11 10:20:14;;;;;;;11.82;3.58;;;;;;;;;;5030110;28;20029;-77
2023/02/11 10:22:42;;;;;;;7.22;3.45;;;;;;;;;;5028992;28;20546;-77
2023/02/11 10:25:17;;;;;;;6.90;3.38;;;;;;;;;;5026378;28;20040;-80
2023/02/11 10:27:43;;;;;;;5.35;3.00;;;;;;;;;;5026924;28;20047;-77
2023/02/11 10:30:18;;;;;;;9.40;2.90;;;;;;;;;;5035302;28;20037;-87
2023/02/11 10:32:47;;;;;;;6.82;3.20;;;;;;;;;;5026309;28;20113;-80
2023/02/11 10:35:16;;;;;;;6.05;2.97;;;;;;;;;;5026504;28;20036;-85
2023/02/11 10:37:42;;;;;;;5.40;2.80;;;;;;;;;;5032644;28;20246;-81
2023/02/11 10:40:19;;;;;;;5.97;2.70;;;;;;;;;;5055079;22;20322;-82
2023/02/11 10:42:47;;;;;;;6.10;3.00;;;;;;;;;;5069545;28;20036;-80
2023/02/11 10:45:18;;;;;;;5.43;2.88;;;;;;;;;;5049416;28;20032;-80
2023/02/11 10:47:44;;;;;;;6.28;3.42;;;;;;;;;;5067498;28;20545;-82
2023/02/11 10:50:18;;;;;;;3.95;2.33;;;;;;;;;;5065309;28;20028;-82
2023/02/11 10:52:44;;;;;;;7.82;3.08;;;;;;;;;;5065431;28;20035;-82
2023/02/11 10:55:10;;;;;;;4.07;2.63;;;;;;;;;;5067298;28;20032;-82
2023/02/11 10:57:37;;;;;;;4.32;2.45;;;;;;;;;;5067718;28;20082;-82
2023/02/11 11:00:19;;;;;;;10.60;2.75;;;;;;;;;;5069570;28;20043;-82
2023/02/11 11:02:52;;;;;;;5.38;3.10;;;;;;;;;;5070537;28;20029;-81
2023/02/11 11:05:21;;;;;;;4.60;2.42;;;;;;;;;;5062004;28;20043;-81
2023/02/11 11:07:54;;;;;;;7.13;2.38;;;;;;;;;;5071226;28;20040;-82
2023/02/11 11:10:47;;;;;;;3.55;2.30;;;;;;;;;;5068169;28;20154;-82
2023/02/11 11:13:32;;;;;;;4.50;2.75;;;;;;;;;;5071062;28;20025;-82
2023/02/11 11:16:13;;;;;;;3.75;2.33;;;;;;;;;;5071375;28;20031;-82
2023/02/11 11:18:42;;;;;;;4.25;2.28;;;;;;;;;;5070085;28;20047;-82
2023/02/11 11:21:17;;;;;;;3.42;2.22;;;;;;;;;;5069270;28;20069;-82
2023/02/11 11:23:48;;;;;;;3.75;2.25;;;;;;;;;;5070832;28;20060;-82
2023/02/11 11:26:15;;;;;;;4.55;1.98;;;;;;;;;;5070682;28;20031;-81
2023/02/11 11:28:53;;;;;;;5.82;2.83;;;;;;;;;;5059593;28;20127;-79
2023/02/11 11:31:24;;;;;;;3.45;2.03;;;;;;;;;;5064152;28;20047;-82
2023/02/11 11:33:51;;;;;;;3.53;2.40;;;;;;;;;;5069421;28;20808;-79
2023/02/11 11:36:20;;;;;;;4.25;2.10;;;;;;;;;;5060789;28;20025;-79
2023/02/11 11:38:57;;;;;;;3.95;2.90;;;;;;;;;;5069212;28;20128;-84
2023/02/11 11:41:27;;;;;;;4.90;2.30;;;;;;;;;;5063677;28;20093;-81
2023/02/11 11:43:54;;;;;;;3.75;2.00;;;;;;;;;;5065339;28;20104;-83
2023/02/11 11:46:25;;;;;;;4.13;2.35;;;;;;;;;;5070660;28;20032;-80
2023/02/11 11:48:53;;;;;;;3.78;1.95;;;;;;;;;;5067691;28;20101;-81
2023/02/11 11:51:20;;;;;;;3.90;1.83;;;;;;;;;;5067548;28;20023;-81
2023/02/11 11:54:08;;;;;;;5.57;2.55;;;;;;;;;;5073500;28;20021;-80
2023/02/11 11:56:36;;;;;;;5.72;2.08;;;;;;;;;;5068858;28;20031;-79
2023/02/11 11:59:06;;;;;;;8.35;2.35;;;;;;;;;;5064734;28;20035;-79
2023/02/11 12:01:38;;;;;;;5.60;2.33;;;;;;;;;;5077320;28;20059;-79
2023/02/11 12:04:22;;;;;;;5.63;1.88;;;;;;;;;;5070246;28;20028;-80
2023/02/11 12:07:07;;;;;;;3.45;2.40;;;;;;;;;;5056201;28;20938;-83
2023/02/11 12:09:36;;;;;;;4.88;1.65;;;;;;;;;;5048297;28;20142;-79
2023/02/11 12:12:23;;;;;;;2.55;1.80;;;;;;;;;;5049925;28;20032;-75
2023/02/11 12:14:54;;;;;;;2.63;1.95;;;;;;;;;;5046006;28;20078;-81
2023/02/11 12:17:40;;;;;;;2.85;1.92;;;;;;;;;;5053243;28;20131;-81
2023/02/11 12:20:25;;;;;;;5.85;2.30;;;;;;;;;;5045752;28;20440;-72
2023/02/11 12:22:51;;;;;;;6.80;1.83;;;;;;;;;;5044361;28;20064;-74
2023/02/11 12:25:39;;;;;;;4.68;1.90;;;;;;;;;;5049439;28;20557;-83
2023/02/11 12:28:11;;;;;;;2.53;1.75;;;;;;;;;;5053794;28;20500;-84
2023/02/11 12:30:47;;;;;;;4.10;2.42;;;;;;;;;;5049887;28;20492;-82
2023/02/11 12:33:25;;;;;;;4.13;2.75;;;;;;;;;;5053889;28;20033;-82
2023/02/11 12:35:51;;;;;;;4.43;2.47;;;;;;;;;;5052880;28;20024;-81
2023/02/11 12:38:37;;;;;;;3.70;2.45;;;;;;;;;;5049105;28;20426;-88
2023/02/11 12:41:03;;;;;;;2.88;1.77;;;;;;;;;;5061730;28;20124;-86
2023/02/11 12:43:36;;;;;;;3.60;1.88;;;;;;;;;;5046872;28;20024;-77
2023/02/11 12:46:27;;;;;;;4.18;1.80;;;;;;;;;;5045846;28;20029;-75
2023/02/11 12:48:53;;;;;;;;;;;;;;;;;;5051474;28;20029;-82
2023/02/11 12:51:30;;;;;;;1.60;1.30;;;;;;;;;;5057129;28;19908;-81
2023/02/11 12:54:14;;;;;;;3.30;1.63;;;;;;;;;;5054253;28;20044;-76
2023/02/11 12:56:48;;;;;;;2.42;1.92;;;;;;;;;;5047887;28;20451;-79
2023/02/11 12:59:19;;;;;;;2.75;1.90;;;;;;;;;;5047132;28;20281;-78
2023/02/11 13:01:47;;;;;;;3.42;1.83;;;;;;;;;;5051817;28;20397;-78
2023/02/11 13:04:17;;;;;;;4.53;1.85;;;;;;;;;;5046023;28;20107;-81
2023/02/11 13:06:46;;;;;;;3.88;1.40;;;;;;;;;;5050207;28;20045;-81
2023/02/11 13:09:26;;;;;;;2.78;1.80;;;;;;;;;;5050089;28;20028;-77
2023/02/11 13:11:54;;;;;;;4.00;1.90;;;;;;;;;;5048753;28;20031;-82
2023/02/11 13:14:26;;;;;;;4.63;2.17;;;;;;;;;;5050097;28;20027;-74
2023/02/11 13:16:53;;;;;;;2.30;1.67;;;;;;;;;;5046002;28;20031;-74
2023/02/11 13:19:28;;;;;;;3.10;1.50;;;;;;;;;;5051666;28;20586;-75
2023/02/11 13:22:16;;;;;;;9.45;1.83;;;;;;;;;;5049861;28;20029;-74
2023/02/11 13:24:53;;;;;;;2.60;1.60;;;;;;;;;;5043280;28;20031;-75
2023/02/11 13:27:24;;;;;;;1.80;1.42;;;;;;;;;;5058096;28;20020;-76
2023/02/11 13:29:54;;;;;;;2.30;1.90;;;;;;;;;;5046409;28;20042;-75
2023/02/11 13:32:20;;;;;;;1.67;1.27;;;;;;;;;;5048814;28;20027;-76
2023/02/11 13:34:53;;;;;;;4.55;1.30;;;;;;;;;;5052320;28;20476;-76
2023/02/11 13:37:25;;;;;;;2.30;1.52;;;;;;;;;;5045020;28;20085;-75
2023/02/11 13:40:27;;;;;;;3.25;1.60;;;;;;;;;;5044461;28;20527;-75
2023/02/11 13:42:53;;;;;;;;;;;;;;;;;;4952140;28;20051;-75
2023/02/11 13:45:21;;;;;;;1.58;1.20;;;;;;;;;;5024560;28;20000;-76
2023/02/11 13:47:48;;;;;;;2.83;1.77;;;;;;;;;;5050845;28;20043;-76
2023/02/11 13:50:21;;;;;;;3.42;1.77;;;;;;;;;;5052384;28;20016;-76
2023/02/11 13:52:47;;;;;;;2.45;1.48;;;;;;;;;;5047563;28;20044;-75
2023/02/11 13:55:13;;;;;;;1.85;1.58;;;;;;;;;;5047164;28;20021;-75
2023/02/11 13:57:40;;;;;;;2.17;1.38;;;;;;;;;;5055681;28;20762;-75
2023/02/11 14:00:32;;;;;;;2.47;1.45;;;;;;;;;;5056189;28;20723;-75
2023/02/11 14:09:10;;;;;;;1.77;1.45;;;;;;;;;;5048988;28;20039;-75
2023/02/11 14:11:45;;;;;;;2.30;1.30;;;;;;;;;;5049574;28;20381;-75
2023/02/11 14:14:17;;;;;;;2.63;1.40;;;;;;;;;;5055439;28;20044;-75
2023/02/11 14:16:58;;;;;;;1.88;1.30;;;;;;;;;;5055014;28;20025;-78
2023/02/11 14:19:32;;;;;;;1.58;1.42;;;;;;;;;;5046751;28;20085;-75
2023/02/11 14:22:05;;;;;;;4.38;2.17;;;;;;;;;;5044276;28;20098;-75
2023/02/11 14:24:33;;;;;;;4.72;1.70;;;;;;;;;;5046646;28;20513;-75
2023/02/11 14:27:05;;;;;;;1.75;1.33;;;;;;;;;;5046844;28;20021;-75
2023/02/11 14:29:56;;;;;;;2.35;1.30;;;;;;;;;;5039455;28;20229;-76
2023/02/11 14:32:50;;;;;;;2.20;1.23;;;;;;;;;;5045568;28;20029;-84
2023/02/11 14:35:27;;;;;;;3.05;1.50;;;;;;;;;;5050311;28;20055;-81
2023/02/11 14:38:12;;;;;;;1.77;1.25;;;;;;;;;;5049568;28;20025;-81
2023/02/11 14:40:47;;;;;;;1.77;1.42;;;;;;;;;;5050195;28;20059;-80
2023/02/11 14:43:18;;;;;;;7.13;2.58;;;;;;;;;;5048931;28;20025;-83
2023/02/11 14:45:47;;;;;;;1.95;1.17;;;;;;;;;;5049611;28;20029;-80
2023/02/11 14:48:15;;;;;;;3.67;1.60;;;;;;;;;;5033982;28;20833;-81
2023/02/11 14:50:52;;;;;;;5.97;1.52;;;;;;;;;;5050077;28;20032;-81
2023/02/11 14:53:20;;;;;;;4.13;1.50;;;;;;;;;;5050620;28;20074;-81
2023/02/11 14:55:53;;;;;;;2.42;1.35;;;;;;;;;;5045820;28;20573;-82
2023/02/11 14:58:23;;;;;;;2.65;1.50;;;;;;;;;;5051877;28;20052;-78
2023/02/11 15:00:58;;;;;;;1.17;1.00;;;;;;;;;;5050322;28;20397;-76
2023/02/11 15:03:38;;;;;;;3.35;1.52;;;;;;;;;;5051176;28;20044;-78
2023/02/11 15:06:06;;;;;;;1.80;1.20;;;;;;;;;;5045740;28;20039;-78
2023/02/11 15:08:34;;;;;;;1.67;1.20;;;;;;;;;;5055748;28;20028;-78
2023/02/11 15:11:01;;;;;;;2.28;1.45;;;;;;;;;;5050105;28;20078;-79